Time;durP1;ratioP1;P1;durP2;ratioP2;P2;SDS_P1;SDS_P2;PMS_P1;PMS_P2;Temp;Humidity;BMP_temperature;BMP_pressure;BME280_temperature;BME280_humidity;BME280_pressure;Samples;Min_cycle;Max_cycle;Signal;HPM_P1;HPM_P2
2022/03/07 00:01:51;;;;;;;22.13;20.47;;;1.20;8.40;;;;;;4992675;28;20174;-68
2022/03/07 00:04:17;;;;;;;23.13;21.43;;;1.30;8.50;;;;;;4992644;28;20410;-68
2022/03/07 00:06:46;;;;;;;20.42;19.23;;;1.20;8.40;;;;;;4991113;28;20654;-69
2022/03/07 00:09:13;;;;;;;21.10;19.50;;;1.30;8.50;;;;;;4992351;28;20212;-68
2022/03/07 00:11:39;;;;;;;21.65;20.00;;;1.10;8.80;;;;;;4992485;28;20187;-68
2022/03/07 00:14:04;;;;;;;20.43;18.90;;;1.20;8.90;;;;;;4991796;28;20187;-68
2022/03/07 00:16:30;;;;;;;21.00;19.40;;;1.00;9.10;;;;;;4996064;28;20667;-67
2022/03/07 00:18:56;;;;;;;20.50;18.90;;;1.10;9.10;;;;;;4996065;28;20250;-68
2022/03/07 00:21:22;;;;;;;22.35;19.45;;;1.20;9.20;;;;;;4994702;28;20613;-68
2022/03/07 00:23:48;;;;;;;20.17;18.77;;;1.00;9.10;;;;;;4995442;28;20267;-68
2022/03/07 00:26:13;;;;;;;20.60;19.20;;;1.00;9.10;;;;;;4985984;28;20431;-67
2022/03/07 00:28:40;;;;;;;20.10;18.80;;;0.90;9.50;;;;;;4970843;28;20207;-67
2022/03/07 00:31:06;;;;;;;20.48;19.02;;;1.10;9.10;;;;;;4993491;28;20191;-68
2022/03/07 00:33:32;;;;;;;22.05;20.33;;;1.20;9.20;;;;;;4994781;28;20226;-68
2022/03/07 00:35:58;;;;;;;19.40;17.60;;;1.20;9.20;;;;;;4995134;28;20211;-68
2022/03/07 00:38:23;;;;;;;23.23;20.98;;;1.00;9.30;;;;;;4995157;28;20210;-68
2022/03/07 00:40:50;;;;;;;21.50;19.90;;;1.00;9.50;;;;;;4995938;28;20174;-69
2022/03/07 00:43:15;;;;;;;21.55;19.77;;;1.10;9.30;;;;;;4986917;28;20671;-69
2022/03/07 00:45:41;;;;;;;20.53;19.13;;;1.10;9.60;;;;;;4987126;28;20216;-69
2022/03/07 00:48:07;;;;;;;19.27;18.03;;;1.00;9.50;;;;;;4995575;28;20544;-69
2022/03/07 00:50:32;;;;;;;20.20;18.70;;;0.90;10.10;;;;;;4995501;28;20269;-69
2022/03/07 00:52:58;;;;;;;20.60;19.10;;;1.10;9.70;;;;;;4981234;28;20242;-68
2022/03/07 00:55:24;;;;;;;21.63;19.83;;;1.00;10.00;;;;;;4976222;28;20200;-69
2022/03/07 00:57:49;;;;;;;21.27;19.53;;;1.10;10.00;;;;;;4987326;28;20556;-68
2022/03/07 01:00:15;;;;;;;20.37;18.90;;;1.20;10.30;;;;;;4995349;28;20202;-69
2022/03/07 01:02:41;;;;;;;19.90;18.60;;;1.10;9.90;;;;;;4995192;28;20594;-69
2022/03/07 01:05:07;;;;;;;19.03;17.90;;;1.00;10.30;;;;;;4995592;28;20202;-68
2022/03/07 01:07:33;;;;;;;19.92;18.38;;;0.90;10.40;;;;;;4995198;28;20254;-68
2022/03/07 01:09:58;;;;;;;22.23;20.47;;;1.00;10.70;;;;;;4994439;28;20617;-68
2022/03/07 01:12:24;;;;;;;21.03;19.43;;;0.90;10.50;;;;;;4995061;28;20601;-68
2022/03/07 01:14:49;;;;;;;20.37;18.87;;;0.80;11.00;;;;;;4993644;28;20186;-69
2022/03/07 01:17:15;;;;;;;21.93;20.00;;;0.90;10.80;;;;;;4994161;28;20175;-69
2022/03/07 01:19:40;;;;;;;20.73;19.27;;;0.80;11.00;;;;;;4994752;28;20219;-68
2022/03/07 01:22:06;;;;;;;20.73;19.53;;;0.70;11.20;;;;;;4994321;28;20192;-68
2022/03/07 01:24:32;;;;;;;18.40;17.40;;;0.80;11.30;;;;;;4994260;28;20198;-68
2022/03/07 01:26:57;;;;;;;20.27;18.80;;;0.70;11.20;;;;;;4993882;28;20252;-69
2022/03/07 01:29:23;;;;;;;20.47;18.97;;;0.60;11.60;;;;;;4994711;28;20704;-69
2022/03/07 01:31:49;;;;;;;20.17;18.87;;;0.60;11.70;;;;;;4993769;28;20494;-69
2022/03/07 01:34:14;;;;;;;20.03;18.80;;;0.60;11.60;;;;;;4994226;28;20675;-68
2022/03/07 01:36:40;;;;;;;19.87;18.13;;;0.70;11.30;;;;;;4995396;28;20659;-68
2022/03/07 01:39:06;;;;;;;19.27;17.92;;;0.70;11.50;;;;;;4994595;28;20215;-68
2022/03/07 01:41:31;;;;;;;19.53;18.23;;;0.70;11.40;;;;;;4994539;28;20181;-68
2022/03/07 01:43:57;;;;;;;21.00;19.50;;;0.70;11.40;;;;;;4994291;28;20285;-68
2022/03/07 01:46:22;;;;;;;20.23;18.83;;;0.60;11.20;;;;;;4994474;28;20181;-68
2022/03/07 01:48:48;;;;;;;21.17;19.70;;;0.60;11.30;;;;;;4995035;28;20675;-68
2022/03/07 01:51:17;;;;;;;18.60;17.23;;;0.60;11.50;;;;;;4994905;28;20584;-68
2022/03/07 01:53:42;;;;;;;20.20;18.55;;;0.40;11.50;;;;;;4993972;28;20186;-68
2022/03/07 01:56:08;;;;;;;21.43;20.13;;;0.40;11.80;;;;;;4995584;28;20184;-69
2022/03/07 01:58:34;;;;;;;21.73;20.10;;;0.50;11.40;;;;;;4993226;28;20464;-68
2022/03/07 02:01:00;;;;;;;19.73;18.42;;;0.60;11.40;;;;;;4994468;28;20266;-68
2022/03/07 02:03:26;;;;;;;19.25;17.90;;;0.60;11.30;;;;;;4990174;28;20178;-68
2022/03/07 02:05:52;;;;;;;20.70;19.30;;;0.60;11.20;;;;;;4977958;28;20190;-68
2022/03/07 02:08:18;;;;;;;20.10;18.80;;;0.60;11.20;;;;;;4973542;28;20214;-68
2022/03/07 02:10:45;;;;;;;18.67;17.43;;;0.60;11.30;;;;;;4974917;28;20189;-68
2022/03/07 02:13:15;;;;;;;19.35;18.10;;;0.60;11.10;;;;;;4974492;28;20931;-68
2022/03/07 02:15:41;;;;;;;19.17;17.98;;;0.60;11.00;;;;;;4976562;28;20577;-68
2022/03/07 02:18:06;;;;;;;18.67;17.40;;;0.60;10.80;;;;;;4974536;28;20183;-68
2022/03/07 02:20:32;;;;;;;18.70;17.13;;;0.60;10.90;;;;;;4979489;28;20225;-68
2022/03/07 02:22:59;;;;;;;19.00;17.73;;;0.60;10.90;;;;;;4979216;28;20186;-68
2022/03/07 02:25:24;;;;;;;19.20;17.65;;;0.40;11.20;;;;;;4974104;28;20412;-68
2022/03/07 02:27:50;;;;;;;19.07;17.67;;;0.30;11.30;;;;;;4976014;28;20180;-68
2022/03/07 02:30:15;;;;;;;19.90;18.70;;;0.30;11.40;;;;;;4993017;28;20214;-68
2022/03/07 02:32:43;;;;;;;18.17;17.07;;;0.30;11.50;;;;;;4993460;28;20225;-68
2022/03/07 02:35:11;;;;;;;18.05;16.92;;;0.30;11.40;;;;;;4993131;28;20273;-68
2022/03/07 02:37:36;;;;;;;19.02;17.70;;;0.30;11.20;;;;;;4991850;28;20265;-68
2022/03/07 02:40:04;;;;;;;17.67;16.67;;;0.30;11.10;;;;;;4993100;28;20259;-68
2022/03/07 02:42:29;;;;;;;18.20;16.83;;;0.30;11.30;;;;;;4991769;28;20182;-68
2022/03/07 02:44:55;;;;;;;20.03;17.83;;;0.40;11.30;;;;;;4993336;28;20305;-68
2022/03/07 02:47:23;;;;;;;19.30;18.00;;;0.20;11.50;;;;;;4993067;28;20173;-68
2022/03/07 02:49:49;;;;;;;18.70;17.50;;;0.10;11.60;;;;;;4976302;28;20214;-68
2022/03/07 02:52:14;;;;;;;18.48;17.10;;;0.20;11.70;;;;;;4992949;28;20178;-68
2022/03/07 02:54:40;;;;;;;18.30;17.10;;;0.00;11.80;;;;;;4993150;28;20671;-68
2022/03/07 02:57:07;;;;;;;19.40;17.70;;;0.10;11.90;;;;;;4992806;28;20180;-68
2022/03/07 02:59:33;;;;;;;18.55;17.25;;;0.20;11.80;;;;;;4992596;28;20223;-68
2022/03/07 03:01:58;;;;;;;18.97;17.67;;;0.00;11.80;;;;;;4992728;28;20653;-69
2022/03/07 03:04:24;;;;;;;18.67;17.37;;;0.10;11.90;;;;;;4992450;28;20202;-67
2022/03/07 03:06:49;;;;;;;17.20;16.00;;;0.10;11.90;;;;;;4992297;28;20196;-67
2022/03/07 03:09:15;;;;;;;18.83;17.50;;;0.10;11.70;;;;;;4984125;28;20255;-67
2022/03/07 03:11:40;;;;;;;18.07;16.87;;;-0.20;12.00;;;;;;4972658;28;20177;-69
2022/03/07 03:14:06;;;;;;;16.80;15.80;;;-0.10;12.10;;;;;;4988304;28;20183;-67
2022/03/07 03:16:32;;;;;;;17.50;16.30;;;-0.30;12.50;;;;;;4991969;28;20169;-67
2022/03/07 03:18:58;;;;;;;18.75;17.42;;;-0.40;12.50;;;;;;4992022;28;20841;-67
2022/03/07 03:21:23;;;;;;;17.23;16.30;;;-0.40;12.50;;;;;;4990975;28;20178;-69
2022/03/07 03:23:49;;;;;;;19.13;17.63;;;-0.50;12.40;;;;;;4992268;28;20259;-68
2022/03/07 03:26:14;;;;;;;17.63;16.50;;;-0.50;12.40;;;;;;4992325;28;20213;-67
2022/03/07 03:28:40;;;;;;;18.43;17.13;;;-0.60;12.30;;;;;;4991763;28;20236;-67
2022/03/07 03:31:08;;;;;;;20.17;18.60;;;-0.60;12.40;;;;;;4991921;28;20244;-68
2022/03/07 03:33:35;;;;;;;18.65;17.45;;;-0.70;12.60;;;;;;4992722;28;20259;-68
2022/03/07 03:36:02;;;;;;;17.85;16.70;;;-0.70;12.60;;;;;;4993176;28;20631;-67
2022/03/07 03:38:27;;;;;;;17.65;16.65;;;-0.90;12.90;;;;;;4991514;28;20597;-68
2022/03/07 03:40:53;;;;;;;17.90;16.70;;;-0.90;13.00;;;;;;4992267;28;20172;-68
2022/03/07 03:43:18;;;;;;;18.43;17.23;;;-0.90;13.10;;;;;;4991617;28;20200;-67
2022/03/07 03:45:44;;;;;;;18.13;16.93;;;-0.90;13.20;;;;;;4992257;28;20215;-67
2022/03/07 03:48:09;;;;;;;17.90;16.70;;;-0.80;13.00;;;;;;4991727;28;20216;-67
2022/03/07 03:50:35;;;;;;;19.20;17.90;;;-0.80;12.90;;;;;;4995298;28;20212;-67
2022/03/07 03:53:01;;;;;;;17.00;16.00;;;-1.10;13.20;;;;;;4995732;28;20223;-68
2022/03/07 03:55:26;;;;;;;19.27;17.80;;;-1.20;13.40;;;;;;4996021;28;20196;-68
2022/03/07 03:57:52;;;;;;;19.70;18.20;;;-1.10;13.70;;;;;;4995686;28;20214;-67
2022/03/07 04:00:18;;;;;;;17.90;16.90;;;-1.30;13.50;;;;;;4995510;28;20212;-67
2022/03/07 04:02:44;;;;;;;17.85;16.40;;;-1.20;13.60;;;;;;4994318;28;20611;-68
2022/03/07 04:05:14;;;;;;;18.83;17.60;;;-1.20;13.60;;;;;;4995759;28;20200;-68
2022/03/07 04:07:40;;;;;;;18.05;16.85;;;-1.30;13.80;;;;;;4995601;28;20439;-68
2022/03/07 04:10:07;;;;;;;18.30;17.10;;;-1.30;14.00;;;;;;4995575;28;20291;-67
2022/03/07 04:12:32;;;;;;;19.48;18.10;;;-1.30;14.10;;;;;;4995614;28;20192;-71
2022/03/07 04:14:58;;;;;;;19.80;18.50;;;-1.30;13.80;;;;;;4995637;28;20187;-70
2022/03/07 04:17:24;;;;;;;22.60;20.70;;;-1.20;13.80;;;;;;4993696;28;20212;-68
2022/03/07 04:19:49;;;;;;;17.27;16.30;;;-1.20;13.70;;;;;;4994142;28;20294;-68
2022/03/07 04:22:15;;;;;;;18.37;16.97;;;-1.20;13.70;;;;;;4995365;28;20412;-69
2022/03/07 04:24:41;;;;;;;19.87;17.93;;;-1.20;13.70;;;;;;4995474;28;20173;-69
2022/03/07 04:27:06;;;;;;;19.67;18.40;;;-1.30;14.00;;;;;;4994838;28;20442;-70
2022/03/07 04:29:32;;;;;;;16.07;15.03;;;-1.20;14.00;;;;;;4994940;28;20213;-69
2022/03/07 04:31:58;;;;;;;16.88;15.75;;;-1.10;13.50;;;;;;4995095;28;20188;-68
2022/03/07 04:34:23;;;;;;;18.10;16.60;;;-1.10;13.00;;;;;;4995140;28;20731;-68
2022/03/07 04:36:49;;;;;;;17.00;15.60;;;-1.10;13.00;;;;;;4994855;28;20184;-69
2022/03/07 04:39:14;;;;;;;17.73;16.53;;;-1.20;13.30;;;;;;4995014;28;20208;-68
2022/03/07 04:41:40;;;;;;;19.20;17.80;;;-1.20;13.50;;;;;;4994558;28;20189;-68
2022/03/07 04:44:07;;;;;;;17.57;16.47;;;-1.10;13.50;;;;;;4993767;28;20190;-69
2022/03/07 04:46:33;;;;;;;17.80;16.52;;;-1.10;13.20;;;;;;4994900;28;20929;-68
2022/03/07 04:48:58;;;;;;;18.08;16.88;;;-1.10;13.00;;;;;;4993284;28;20256;-68
2022/03/07 04:51:24;;;;;;;18.20;17.00;;;-1.10;13.40;;;;;;4994620;23;20729;-70
2022/03/07 04:53:50;;;;;;;16.90;15.87;;;-1.10;13.20;;;;;;4975449;28;20260;-70
2022/03/07 04:56:15;;;;;;;18.03;16.53;;;-1.10;13.30;;;;;;4975035;28;20414;-71
2022/03/07 04:58:41;;;;;;;17.80;16.50;;;-1.10;13.30;;;;;;4975366;28;20740;-72
2022/03/07 05:01:07;;;;;;;17.97;16.63;;;-1.10;13.40;;;;;;4989292;28;20192;-71
2022/03/07 05:03:33;;;;;;;19.30;18.00;;;-1.20;13.40;;;;;;4994338;28;20259;-71
2022/03/07 05:05:58;;;;;;;18.50;17.17;;;-1.20;13.60;;;;;;4994834;28;20572;-71
2022/03/07 05:08:24;;;;;;;19.50;18.00;;;-1.30;13.90;;;;;;4994777;28;20993;-71
2022/03/07 05:10:49;;;;;;;18.73;17.40;;;-1.30;14.20;;;;;;4994028;28;20200;-72
2022/03/07 05:13:15;;;;;;;17.70;16.37;;;-1.30;14.10;;;;;;4994287;28;20558;-71
2022/03/07 05:15:40;;;;;;;16.10;15.20;;;-1.40;14.00;;;;;;4994469;28;20562;-72
2022/03/07 05:18:06;;;;;;;18.63;17.40;;;-1.40;14.10;;;;;;4992573;28;20217;-72
2022/03/07 05:20:32;;;;;;;18.07;16.63;;;-1.40;14.60;;;;;;4994546;28;20211;-72
2022/03/07 05:22:58;;;;;;;17.63;16.40;;;-1.50;14.60;;;;;;4993785;28;20495;-72
2022/03/07 05:25:24;;;;;;;18.48;16.98;;;-1.60;14.80;;;;;;4994080;28;20514;-71
2022/03/07 05:27:49;;;;;;;18.00;16.73;;;-1.70;15.10;;;;;;4994150;28;20579;-70
2022/03/07 05:30:18;;;;;;;17.77;16.60;;;-1.90;15.70;;;;;;4994166;28;20197;-71
2022/03/07 05:32:50;;;;;;;18.20;16.90;;;-2.00;16.20;;;;;;4993872;28;20191;-71
2022/03/07 05:35:16;;;;;;;18.48;17.08;;;-2.00;15.70;;;;;;4992576;28;20225;-74
2022/03/07 05:37:41;;;;;;;19.27;17.65;;;-2.10;15.60;;;;;;4994192;28;20272;-70
2022/03/07 05:40:09;;;;;;;18.73;16.97;;;-2.00;15.70;;;;;;4993856;28;20283;-69
2022/03/07 05:42:35;;;;;;;18.90;17.50;;;-2.10;15.60;;;;;;4993918;28;20637;-68
2022/03/07 05:45:01;;;;;;;18.45;17.10;;;-2.10;15.60;;;;;;4993599;28;20181;-70
2022/03/07 05:47:26;;;;;;;18.87;17.37;;;-2.10;15.60;;;;;;4993529;28;20650;-70
2022/03/07 05:49:52;;;;;;;20.63;18.70;;;-2.30;16.20;;;;;;4992294;28;20208;-69
2022/03/07 05:52:18;;;;;;;19.50;17.70;;;-2.30;16.40;;;;;;4993454;28;20255;-69
2022/03/07 05:54:43;;;;;;;19.90;18.43;;;-2.20;16.00;;;;;;4993476;28;20553;-69
2022/03/07 05:57:09;;;;;;;17.30;16.00;;;-2.40;17.00;;;;;;4993539;28;20192;-69
2022/03/07 05:59:34;;;;;;;20.53;18.37;;;-2.50;17.00;;;;;;4992229;28;20569;-71
2022/03/07 06:02:00;;;;;;;20.00;18.27;;;-2.60;17.50;;;;;;4993337;28;20176;-69
2022/03/07 06:04:26;;;;;;;18.83;17.23;;;-2.60;17.70;;;;;;4979559;28;20528;-70
2022/03/07 06:06:51;;;;;;;19.83;18.10;;;-2.40;17.10;;;;;;4965907;28;20569;-69
2022/03/07 06:09:17;;;;;;;17.87;16.77;;;-2.50;17.40;;;;;;4968792;28;20910;-70
2022/03/07 06:11:42;;;;;;;17.90;16.70;;;-2.40;17.40;;;;;;4973612;28;20738;-69
2022/03/07 06:14:08;;;;;;;20.77;18.87;;;-2.40;17.30;;;;;;4974638;28;20187;-70
2022/03/07 06:16:34;;;;;;;19.77;18.30;;;-2.50;17.40;;;;;;4989968;28;20224;-70
2022/03/07 06:18:59;;;;;;;19.53;17.87;;;-2.40;17.50;;;;;;4991247;28;20705;-74
2022/03/07 06:21:25;;;;;;;17.07;15.97;;;-2.40;17.10;;;;;;4973599;28;20197;-75
2022/03/07 06:23:50;;;;;;;18.13;16.53;;;-2.40;17.20;;;;;;4973790;28;20562;-75
2022/03/07 06:26:16;;;;;;;20.97;19.20;;;-2.20;16.80;;;;;;4975847;28;20252;-71
2022/03/07 06:28:41;;;;;;;19.60;17.93;;;-2.20;16.80;;;;;;4992757;28;20654;-71
2022/03/07 06:31:07;;;;;;;19.77;18.20;;;-2.10;16.60;;;;;;4993123;28;20211;-71
2022/03/07 06:33:33;;;;;;;20.53;18.70;;;-2.00;16.70;;;;;;4992696;28;20181;-73
2022/03/07 06:35:58;;;;;;;20.13;18.43;;;-1.90;16.20;;;;;;4993042;28;20239;-70
2022/03/07 06:38:24;;;;;;;19.13;17.57;;;-1.70;16.30;;;;;;4992813;28;20254;-71
2022/03/07 06:40:49;;;;;;;18.63;17.37;;;-1.40;15.90;;;;;;4992986;28;20197;-71
2022/03/07 06:43:15;;;;;;;18.47;17.07;;;-1.30;15.60;;;;;;4992891;28;20216;-71
2022/03/07 06:45:40;;;;;;;18.93;17.60;;;-1.30;15.20;;;;;;4992893;28;20260;-71
2022/03/07 06:48:06;;;;;;;21.50;19.37;;;-1.10;15.10;;;;;;4992625;28;20542;-71
2022/03/07 06:50:32;;;;;;;18.00;16.80;;;-1.10;14.80;;;;;;4992316;28;20223;-70
2022/03/07 06:52:58;;;;;;;21.90;20.20;;;-1.20;15.00;;;;;;4992672;28;20996;-70
2022/03/07 06:55:24;;;;;;;28.75;19.00;;;-1.10;14.40;;;;;;4992694;28;20590;-70
2022/03/07 06:57:49;;;;;;;23.53;19.37;;;-1.20;14.70;;;;;;4992557;28;20180;-71
2022/03/07 07:00:16;;;;;;;18.80;17.50;;;-1.10;14.80;;;;;;4992660;28;20701;-69
2022/03/07 07:02:43;;;;;;;22.33;19.13;;;-1.20;14.70;;;;;;4992312;28;20546;-70
2022/03/07 07:05:09;;;;;;;21.05;19.08;;;-1.10;15.00;;;;;;4992604;28;20179;-71
2022/03/07 07:07:35;;;;;;;21.15;18.88;;;-1.00;14.90;;;;;;4992512;28;20181;-70
2022/03/07 07:10:02;;;;;;;18.73;17.33;;;-0.90;14.20;;;;;;4992171;28;20208;-71
2022/03/07 07:12:28;;;;;;;19.98;18.48;;;-0.80;13.40;;;;;;4992499;28;20188;-70
2022/03/07 07:14:53;;;;;;;21.03;19.47;;;-0.60;12.60;;;;;;4992546;28;20280;-71
2022/03/07 07:17:19;;;;;;;18.40;17.10;;;-0.40;12.50;;;;;;4990858;28;20590;-70
2022/03/07 07:19:44;;;;;;;19.67;18.27;;;-0.60;12.80;;;;;;4991556;28;20215;-70
2022/03/07 07:22:10;;;;;;;20.30;18.90;;;-0.70;13.60;;;;;;4992273;28;20769;-70
2022/03/07 07:24:36;;;;;;;20.27;18.70;;;-0.40;14.10;;;;;;4991558;28;20169;-70
2022/03/07 07:27:02;;;;;;;21.37;19.23;;;-0.10;12.70;;;;;;4992360;28;20185;-70
2022/03/07 07:29:28;;;;;;;22.67;20.45;;;0.00;12.70;;;;;;4990701;28;20419;-70
2022/03/07 07:31:53;;;;;;;20.23;18.70;;;-0.10;12.70;;;;;;4992187;28;20188;-69
2022/03/07 07:34:20;;;;;;;21.47;19.70;;;-0.10;12.60;;;;;;4987591;28;20188;-69
2022/03/07 07:36:46;;;;;;;22.98;21.08;;;-0.20;12.60;;;;;;4987671;28;20189;-70
2022/03/07 07:39:12;;;;;;;21.95;20.42;;;-0.10;12.60;;;;;;4987407;28;20675;-71
2022/03/07 07:41:37;;;;;;;21.57;19.97;;;0.10;12.80;;;;;;4982385;28;20199;-69
2022/03/07 07:44:04;;;;;;;22.17;20.30;;;0.20;12.90;;;;;;4976747;28;20190;-70
2022/03/07 07:46:29;;;;;;;23.40;21.10;;;0.50;12.20;;;;;;4987492;28;20188;-71
2022/03/07 07:48:55;;;;;;;22.20;20.00;;;0.00;12.50;;;;;;4988036;28;20571;-70
2022/03/07 07:51:21;;;;;;;22.43;20.60;;;-0.10;12.30;;;;;;4978499;28;20229;-69
2022/03/07 07:53:46;;;;;;;22.50;20.57;;;0.10;12.50;;;;;;4968845;28;20422;-71
2022/03/07 07:56:12;;;;;;;21.53;19.77;;;0.00;12.70;;;;;;4968698;28;20195;-69
2022/03/07 07:58:38;;;;;;;22.53;20.70;;;0.10;12.80;;;;;;4968440;28;20238;-69
2022/03/07 08:01:04;;;;;;;21.63;19.70;;;0.10;12.80;;;;;;4969118;28;20208;-69
2022/03/07 08:03:29;;;;;;;21.67;20.10;;;0.50;11.90;;;;;;4980700;28;20619;-71
2022/03/07 08:05:55;;;;;;;23.13;21.13;;;0.70;11.90;;;;;;4986730;28;20282;-69
2022/03/07 08:08:21;;;;;;;22.67;19.37;;;0.50;10.90;;;;;;4975212;28;20188;-70
2022/03/07 08:10:47;;;;;;;22.17;20.30;;;0.50;10.70;;;;;;4978608;28;20258;-70
2022/03/07 08:13:12;;;;;;;21.67;20.07;;;0.70;10.40;;;;;;4981573;28;20188;-69
2022/03/07 08:15:40;;;;;;;20.70;19.00;;;0.80;10.00;;;;;;4984570;28;20183;-72
2022/03/07 08:18:06;;;;;;;20.58;19.02;;;0.80;9.50;;;;;;4990064;28;20425;-69
2022/03/07 08:20:31;;;;;;;20.52;18.98;;;1.10;9.70;;;;;;4985225;28;20287;-70
2022/03/07 08:22:57;;;;;;;25.33;19.50;;;1.20;9.00;;;;;;4972339;28;20276;-70
2022/03/07 08:25:23;;;;;;;20.20;18.67;;;1.40;9.00;;;;;;4972657;28;20267;-69
2022/03/07 08:27:49;;;;;;;22.70;20.70;;;1.60;9.40;;;;;;4984341;28;20613;-69
2022/03/07 08:30:17;;;;;;;21.15;19.35;;;1.80;8.90;;;;;;4990416;28;20208;-70
2022/03/07 08:32:42;;;;;;;24.23;22.33;;;1.30;8.50;;;;;;4990590;28;20187;-70
2022/03/07 08:35:10;;;;;;;20.77;19.07;;;1.40;9.30;;;;;;4992810;28;20176;-70
2022/03/07 08:37:36;;;;;;;22.73;20.98;;;1.60;8.70;;;;;;4995343;28;20180;-71
2022/03/07 08:40:03;;;;;;;21.77;20.03;;;1.10;8.90;;;;;;4994894;28;20217;-71
2022/03/07 08:42:29;;;;;;;20.73;18.85;;;1.30;9.10;;;;;;4995262;28;20177;-70
2022/03/07 08:44:54;;;;;;;20.43;18.90;;;1.40;8.70;;;;;;4995537;28;20259;-71
2022/03/07 08:47:20;;;;;;;21.80;20.40;;;1.30;8.40;;;;;;4993076;28;20219;-70
2022/03/07 08:49:46;;;;;;;21.33;19.47;;;1.50;8.20;;;;;;4988436;28;20631;-70
2022/03/07 08:52:15;;;;;;;20.03;18.53;;;1.40;8.60;;;;;;4994449;28;20192;-70
2022/03/07 08:54:42;;;;;;;21.23;19.52;;;1.60;8.40;;;;;;4992220;28;20183;-70
2022/03/07 08:57:08;;;;;;;21.88;20.17;;;1.50;8.30;;;;;;4994416;28;20180;-70
2022/03/07 08:59:33;;;;;;;19.73;18.43;;;1.80;8.00;;;;;;4981462;28;20592;-69
2022/03/07 09:01:59;;;;;;;21.40;20.10;;;2.00;7.50;;;;;;4994349;28;20665;-69
2022/03/07 09:04:25;;;;;;;21.13;19.43;;;1.70;7.90;;;;;;4995033;28;20185;-70
2022/03/07 09:06:51;;;;;;;24.83;19.57;;;1.90;8.00;;;;;;4994280;28;20188;-70
2022/03/07 09:09:17;;;;;;;22.00;20.40;;;2.10;7.30;;;;;;4994583;28;20791;-71
2022/03/07 09:11:43;;;;;;;23.23;21.50;;;2.30;6.40;;;;;;4991841;28;20193;-74
2022/03/07 09:14:08;;;;;;;21.13;19.20;;;2.10;6.70;;;;;;4994636;28;20180;-71
2022/03/07 09:16:34;;;;;;;23.27;21.60;;;1.90;6.50;;;;;;4992449;28;20596;-70
2022/03/07 09:19:00;;;;;;;25.20;19.60;;;2.10;7.00;;;;;;4992618;28;20658;-70
2022/03/07 09:21:25;;;;;;;21.53;20.23;;;2.50;7.30;;;;;;4992658;28;20191;-73
2022/03/07 09:23:51;;;;;;;22.10;20.33;;;2.70;5.80;;;;;;4992432;28;20204;-71
2022/03/07 09:26:17;;;;;;;20.53;19.27;;;2.50;5.70;;;;;;4992636;28;20172;-70
2022/03/07 09:28:43;;;;;;;20.20;18.80;;;2.30;5.90;;;;;;4992666;28;20267;-71
2022/03/07 09:31:09;;;;;;;20.73;19.23;;;2.50;5.60;;;;;;4991450;28;20967;-70
2022/03/07 09:33:35;;;;;;;25.02;20.92;;;2.80;5.80;;;;;;4994417;28;20430;-70
2022/03/07 09:36:01;;;;;;;21.10;19.60;;;2.90;5.90;;;;;;4993483;28;20223;-70
2022/03/07 09:38:28;;;;;;;20.53;18.97;;;2.30;5.50;;;;;;4992115;28;20612;-71
2022/03/07 09:40:54;;;;;;;20.98;19.48;;;2.20;5.80;;;;;;4993915;28;20204;-70
2022/03/07 09:43:20;;;;;;;20.15;19.02;;;2.50;5.60;;;;;;4994002;28;20169;-71
2022/03/07 09:45:46;;;;;;;20.75;18.80;;;2.80;5.80;;;;;;4993599;28;20180;-70
2022/03/07 09:48:12;;;;;;;21.70;19.77;;;3.00;5.40;;;;;;4993042;28;20195;-70
2022/03/07 09:50:40;;;;;;;20.90;19.20;;;3.20;5.10;;;;;;4983477;28;20326;-71
2022/03/07 09:53:06;;;;;;;21.10;19.25;;;2.90;5.00;;;;;;4974183;28;20452;-69
2022/03/07 09:55:32;;;;;;;22.02;20.40;;;2.40;5.60;;;;;;4974417;28;20702;-69
2022/03/07 09:57:58;;;;;;;20.50;19.03;;;2.40;5.70;;;;;;4973965;28;20185;-69
2022/03/07 10:00:25;;;;;;;19.65;18.45;;;2.50;5.90;;;;;;4974152;28;20784;-73
2022/03/07 10:03:05;;;;;;;22.20;20.40;;;2.40;5.60;;;;;;4973436;28;20209;-74
2022/03/07 10:05:43;;;;;;;20.67;19.27;;;2.30;5.60;;;;;;4974425;28;20177;-73
2022/03/07 10:08:10;;;;;;;19.23;18.10;;;2.50;5.60;;;;;;4973665;28;20177;-73
2022/03/07 10:10:41;;;;;;;20.55;19.10;;;2.50;5.40;;;;;;4973954;28;20201;-74
2022/03/07 10:13:09;;;;;;;20.63;19.27;;;2.60;5.70;;;;;;4974387;28;20243;-73
2022/03/07 10:15:35;;;;;;;19.88;18.45;;;2.90;5.20;;;;;;4973962;28;20213;-73
2022/03/07 10:18:01;;;;;;;19.45;18.30;;;3.20;4.80;;;;;;4973708;28;20188;-75
2022/03/07 10:20:27;;;;;;;18.83;17.52;;;3.40;4.10;;;;;;4973813;28;20232;-74
2022/03/07 10:22:55;;;;;;;20.97;19.17;;;3.50;3.70;;;;;;4974325;28;20177;-74
2022/03/07 10:25:23;;;;;;;21.75;19.65;;;3.70;3.40;;;;;;4974103;28;20250;-73
2022/03/07 10:27:50;;;;;;;19.35;18.05;;;3.80;2.30;;;;;;4973807;28;20185;-74
2022/03/07 10:30:20;;;;;;;18.33;17.13;;;3.80;3.50;;;;;;4973895;28;20477;-74
2022/03/07 10:33:00;;;;;;;20.15;18.75;;;4.00;2.20;;;;;;4974054;28;20613;-74
2022/03/07 10:35:35;;;;;;;20.65;19.08;;;4.10;2.20;;;;;;4973785;28;20204;-73
2022/03/07 10:38:15;;;;;;;21.02;19.13;;;3.40;3.90;;;;;;4973317;28;20650;-73
2022/03/07 10:40:44;;;;;;;20.80;19.40;;;3.10;4.30;;;;;;4974005;28;20613;-75
2022/03/07 10:43:12;;;;;;;19.00;17.40;;;2.90;4.90;;;;;;4973376;28;20169;-73
2022/03/07 10:45:45;;;;;;;20.15;18.63;;;3.10;4.70;;;;;;4973768;28;20256;-74
2022/03/07 10:48:11;;;;;;;19.38;18.08;;;3.10;4.50;;;;;;4972594;28;20216;-74
2022/03/07 10:50:36;;;;;;;19.93;18.63;;;3.30;4.50;;;;;;4982280;23;20269;-73
2022/03/07 10:53:05;;;;;;;20.07;18.77;;;3.30;4.30;;;;;;4954287;29;20410;-72
2022/03/07 10:55:32;;;;;;;18.40;17.15;;;3.40;4.00;;;;;;4953287;28;20181;-72
2022/03/07 10:58:10;;;;;;;20.00;18.60;;;3.20;4.30;;;;;;4953006;28;20261;-72
2022/03/07 11:00:50;;;;;;;21.17;19.60;;;3.40;3.90;;;;;;4961637;28;20620;-73
2022/03/07 11:03:20;;;;;;;21.25;19.35;;;3.60;3.60;;;;;;4973391;28;20681;-71
2022/03/07 11:05:47;;;;;;;19.75;18.45;;;3.70;3.10;;;;;;4972003;28;20185;-72
2022/03/07 11:08:15;;;;;;;20.55;18.98;;;3.70;3.00;;;;;;4972841;28;20185;-72
2022/03/07 11:10:45;;;;;;;21.35;19.85;;;3.20;3.60;;;;;;4972945;28;20208;-73
2022/03/07 11:13:13;;;;;;;20.10;18.73;;;3.50;3.50;;;;;;4973548;28;20252;-73
2022/03/07 11:15:40;;;;;;;19.77;18.38;;;3.70;3.60;;;;;;4973305;28;20177;-72
2022/03/07 11:18:07;;;;;;;21.17;19.70;;;3.90;2.10;;;;;;4967183;28;20180;-70
2022/03/07 11:20:33;;;;;;;20.35;18.95;;;4.20;1.50;;;;;;4971233;28;20213;-72
2022/03/07 11:22:59;;;;;;;20.35;19.02;;;4.30;1.40;;;;;;4973017;28;20184;-73
2022/03/07 11:25:26;;;;;;;21.80;20.20;;;4.40;1.00;;;;;;4957955;28;20171;-73
2022/03/07 11:27:54;;;;;;;21.10;19.50;;;4.60;1.00;;;;;;4953578;29;21257;-73
2022/03/07 11:30:23;;;;;;;19.02;17.83;;;4.80;1.00;;;;;;4971474;28;20217;-71
2022/03/07 11:32:52;;;;;;;19.58;18.38;;;4.90;1.00;;;;;;4972816;28;20198;-73
2022/03/07 11:35:19;;;;;;;21.15;19.65;;;4.60;1.00;;;;;;4973344;28;20192;-72
2022/03/07 11:37:44;;;;;;;21.27;19.88;;;4.70;1.00;;;;;;4956610;28;20181;-71
2022/03/07 11:40:23;;;;;;;20.17;18.93;;;4.70;1.00;;;;;;4959679;28;20222;-72
2022/03/07 11:42:49;;;;;;;18.27;17.23;;;4.40;1.00;;;;;;4954125;28;20558;-73
2022/03/07 11:45:21;;;;;;;20.35;18.95;;;4.40;1.00;;;;;;4962555;28;20463;-72
2022/03/07 11:47:48;;;;;;;20.00;18.55;;;4.70;1.00;;;;;;4976987;28;20171;-74
2022/03/07 11:50:20;;;;;;;20.08;18.88;;;4.50;1.00;;;;;;4974394;28;20570;-72
2022/03/07 11:52:46;;;;;;;19.83;18.63;;;4.40;1.00;;;;;;4973111;28;20173;-74
2022/03/07 11:55:21;;;;;;;20.13;18.63;;;4.30;1.00;;;;;;4971659;28;20183;-73
2022/03/07 11:57:59;;;;;;;20.65;18.77;;;4.20;1.00;;;;;;4959958;28;20446;-70
2022/03/07 12:00:31;;;;;;;19.88;18.50;;;4.30;1.00;;;;;;4971411;28;20209;-71
2022/03/07 12:03:10;;;;;;;20.58;19.27;;;4.40;1.00;;;;;;4960584;28;20596;-71
2022/03/07 12:05:36;;;;;;;20.83;19.20;;;4.60;1.00;;;;;;4954272;28;20177;-70
2022/03/07 12:08:19;;;;;;;21.38;19.98;;;4.90;1.00;;;;;;4977610;28;20182;-70
2022/03/07 12:11:02;;;;;;;19.38;17.98;;;5.10;1.00;;;;;;4969514;28;20238;-70
2022/03/07 12:13:29;;;;;;;21.88;20.27;;;5.00;1.00;;;;;;4959230;28;20229;-71
2022/03/07 12:16:00;;;;;;;19.08;17.88;;;5.30;1.00;;;;;;4959247;28;20669;-71
2022/03/07 12:18:28;;;;;;;21.80;20.20;;;5.40;1.00;;;;;;4961916;28;20178;-71
2022/03/07 12:20:59;;;;;;;20.10;18.80;;;5.60;1.00;;;;;;4977646;28;20196;-71
2022/03/07 12:23:28;;;;;;;19.85;18.50;;;5.80;1.00;;;;;;4960229;28;20418;-71
2022/03/07 12:26:03;;;;;;;19.60;18.30;;;5.70;1.00;;;;;;4957419;29;20176;-71
2022/03/07 12:28:34;;;;;;;20.00;18.75;;;5.70;1.00;;;;;;4956666;29;20180;-71
2022/03/07 12:31:01;;;;;;;21.80;20.40;;;5.80;1.00;;;;;;4957379;29;20234;-71
2022/03/07 12:33:27;;;;;;;20.83;19.10;;;5.70;1.00;;;;;;4957301;28;20282;-71
2022/03/07 12:36:07;;;;;;;19.30;18.02;;;5.80;1.00;;;;;;4956950;28;20179;-73